OEBA

Al-Baha Domestic Airport

Airport
ICAO code
OEBA
IATA Code
ABT
Summary
ICAO Region
MID
ICAO Territory
Location

Al-Baha,

Serving
Al-Baha
Elevation
5486 ft
Coordinates
20° 17' 38" N , 41° 38' 24" E
KCC
Metar
Observation
OEBA 311900Z 28004KT CAVOK 18/14 Q1020 NOSIG
Station
Al Baha
Date/Time
2023-01-31 20:00:00
Wind direction
280°
Wind speed
04 kts
Lowest cloud amount
clouds and visibility OK
Temperature
18°C
Dew point
14°C
Humidity
77%
QNH
1020 hPa
Weather condition
n/a

Description

Al-Baha Domestic Airport is located 20 km northeast of Al-Baha, Saudi Arabia.

Climatology

Hot Desert Climate (Köppen climate classification BWh) - Hot desert climates are typically found in the subtropics where there is unbroken sunshine for the whole year due to the stable descending air and high pressure, little or no precipitation. Maximum temperatures of 40°C to 45°C are not uncommon, particularly during the warmer months of the year. During colder periods of the year, night-time temperatures can drop to freezing or below due to the exceptional radiation loss under the clear skies. However, very rarely do temperatures drop far below freezing.

Runways

Designator Length Width Surface Rops
7/25 3350 45 ASP Yes/Yes

Airport map

Aerial View

SKYbrary Partners:

Safety knowledge contributed by: